sensor_id;sensor_type;location;lat;lon;timestamp;pressure;altitude;pressure_sealevel;temperature;humidity
86633;BME280;77353;41.632;24.698;2024-03-25T00:02:24;81470.66;;;3.18;75.11
86633;BME280;77353;41.632;24.698;2024-03-25T00:05:26;81462.19;;;3.41;73.78
86633;BME280;77353;41.632;24.698;2024-03-25T00:08:26;81456.41;;;3.33;75.00
86633;BME280;77353;41.632;24.698;2024-03-25T00:11:27;81453.63;;;3.31;74.81
86633;BME280;77353;41.632;24.698;2024-03-25T00:14:28;81454.63;;;3.47;74.56
86633;BME280;77353;41.632;24.698;2024-03-25T00:17:28;81456.22;;;3.41;74.65
86633;BME280;77353;41.632;24.698;2024-03-25T00:20:30;81445.72;;;3.52;74.31
86633;BME280;77353;41.632;24.698;2024-03-25T00:23:31;81446.72;;;3.47;74.41
86633;BME280;77353;41.632;24.698;2024-03-25T00:26:31;81444.56;;;3.34;75.90
86633;BME280;77353;41.632;24.698;2024-03-25T00:29:32;81443.44;;;3.37;75.90
86633;BME280;77353;41.632;24.698;2024-03-25T00:32:33;81445.25;;;3.34;76.06
86633;BME280;77353;41.632;24.698;2024-03-25T00:35:35;81435.41;;;3.35;75.21
86633;BME280;77353;41.632;24.698;2024-03-25T00:38:35;81427.59;;;3.37;76.26
86633;BME280;77353;41.632;24.698;2024-03-25T00:41:36;81427.03;;;3.17;76.94
86633;BME280;77353;41.632;24.698;2024-03-25T00:44:37;81417.72;;;3.38;76.04
86633;BME280;77353;41.632;24.698;2024-03-25T00:47:37;81408.59;;;3.29;76.77
86633;BME280;77353;41.632;24.698;2024-03-25T00:50:39;81395.06;;;3.34;77.06
86633;BME280;77353;41.632;24.698;2024-03-25T00:53:40;81397.03;;;3.13;77.17
86633;BME280;77353;41.632;24.698;2024-03-25T00:56:41;81395.16;;;3.04;77.36
86633;BME280;77353;41.632;24.698;2024-03-25T00:59:41;81383.47;;;3.07;77.86
86633;BME280;77353;41.632;24.698;2024-03-25T01:02:42;81378.84;;;3.28;76.97
86633;BME280;77353;41.632;24.698;2024-03-25T01:05:44;81358.91;;;3.37;76.33
86633;BME280;77353;41.632;24.698;2024-03-25T01:08:45;81345.31;;;3.52;77.11
86633;BME280;77353;41.632;24.698;2024-03-25T01:11:45;81341.78;;;3.38;76.37
86633;BME280;77353;41.632;24.698;2024-03-25T01:14:46;81351.84;;;3.51;76.40
86633;BME280;77353;41.632;24.698;2024-03-25T01:17:46;81350.59;;;3.52;75.55
86633;BME280;77353;41.632;24.698;2024-03-25T01:20:48;81343.75;;;3.05;77.74
86633;BME280;77353;41.632;24.698;2024-03-25T01:23:49;81347.88;;;3.08;78.17
86633;BME280;77353;41.632;24.698;2024-03-25T01:26:50;81359.81;;;2.88;79.20
86633;BME280;77353;41.632;24.698;2024-03-25T01:29:51;81354.56;;;3.09;77.91
86633;BME280;77353;41.632;24.698;2024-03-25T01:32:51;81343.91;;;3.18;76.66
86633;BME280;77353;41.632;24.698;2024-03-25T01:35:53;81347.41;;;3.32;77.04
86633;BME280;77353;41.632;24.698;2024-03-25T01:38:54;81336.38;;;3.36;77.03
86633;BME280;77353;41.632;24.698;2024-03-25T01:41:55;81334.50;;;3.15;77.53
86633;BME280;77353;41.632;24.698;2024-03-25T01:44:55;81320.47;;;3.13;78.17
86633;BME280;77353;41.632;24.698;2024-03-25T01:47:56;81325.25;;;3.05;75.69
86633;BME280;77353;41.632;24.698;2024-03-25T01:50:59;81332.81;;;2.99;77.62
86633;BME280;77353;41.632;24.698;2024-03-25T01:54:00;81319.63;;;2.78;77.15
86633;BME280;77353;41.632;24.698;2024-03-25T01:57:02;81312.25;;;2.97;74.97
86633;BME280;77353;41.632;24.698;2024-03-25T02:00:05;81318.72;;;3.06;75.63
86633;BME280;77353;41.632;24.698;2024-03-25T02:03:06;81309.56;;;2.86;76.53
86633;BME280;77353;41.632;24.698;2024-03-25T02:06:12;81305.47;;;2.73;77.55
86633;BME280;77353;41.632;24.698;2024-03-25T02:09:13;81306.16;;;2.95;76.42
86633;BME280;77353;41.632;24.698;2024-03-25T02:12:14;81301.13;;;2.78;76.74
86633;BME280;77353;41.632;24.698;2024-03-25T02:15:15;81309.31;;;2.82;77.50
86633;BME280;77353;41.632;24.698;2024-03-25T02:18:16;81298.94;;;2.74;77.12
86633;BME280;77353;41.632;24.698;2024-03-25T02:21:18;81309.16;;;3.01;77.74
86633;BME280;77353;41.632;24.698;2024-03-25T02:24:20;81303.66;;;2.97;77.78
86633;BME280;77353;41.632;24.698;2024-03-25T02:27:24;81292.78;;;3.14;76.56
86633;BME280;77353;41.632;24.698;2024-03-25T02:30:25;81289.59;;;2.83;78.67
86633;BME280;77353;41.632;24.698;2024-03-25T02:33:26;81289.59;;;2.83;77.84
86633;BME280;77353;41.632;24.698;2024-03-25T02:36:27;81299.94;;;2.90;78.16
86633;BME280;77353;41.632;24.698;2024-03-25T02:39:27;81284.13;;;3.02;76.48
86633;BME280;77353;41.632;24.698;2024-03-25T02:42:30;81287.69;;;2.95;77.01
86633;BME280;77353;41.632;24.698;2024-03-25T02:45:30;81281.59;;;2.92;76.17
86633;BME280;77353;41.632;24.698;2024-03-25T02:48:31;81293.16;;;2.87;77.17
86633;BME280;77353;41.632;24.698;2024-03-25T02:51:32;81303.78;;;2.78;77.15
86633;BME280;77353;41.632;24.698;2024-03-25T02:54:32;81276.31;;;2.92;75.43
86633;BME280;77353;41.632;24.698;2024-03-25T02:57:34;81283.63;;;2.82;77.39
86633;BME280;77353;41.632;24.698;2024-03-25T03:00:35;81282.91;;;2.82;78.21
86633;BME280;77353;41.632;24.698;2024-03-25T03:03:35;81288.09;;;2.59;78.03
86633;BME280;77353;41.632;24.698;2024-03-25T03:06:36;81310.09;;;2.73;76.97
86633;BME280;77353;41.632;24.698;2024-03-25T03:09:37;81273.25;;;2.75;74.73
86633;BME280;77353;41.632;24.698;2024-03-25T03:12:39;81275.06;;;2.72;75.65
86633;BME280;77353;41.632;24.698;2024-03-25T03:15:43;81291.84;;;2.77;76.12
86633;BME280;77353;41.632;24.698;2024-03-25T03:18:44;81275.56;;;2.59;75.55
86633;BME280;77353;41.632;24.698;2024-03-25T03:21:44;81286.81;;;2.60;75.29
86633;BME280;77353;41.632;24.698;2024-03-25T03:24:45;81304.59;;;2.59;73.94
86633;BME280;77353;41.632;24.698;2024-03-25T03:27:47;81263.47;;;2.44;74.68
86633;BME280;77353;41.632;24.698;2024-03-25T03:30:48;81275.69;;;2.61;74.32
86633;BME280;77353;41.632;24.698;2024-03-25T03:33:48;81277.34;;;2.66;73.76
86633;BME280;77353;41.632;24.698;2024-03-25T03:36:49;81284.19;;;2.60;74.31
86633;BME280;77353;41.632;24.698;2024-03-25T03:39:49;81276.91;;;2.70;73.10
86633;BME280;77353;41.632;24.698;2024-03-25T03:42:51;81283.88;;;2.44;74.83
86633;BME280;77353;41.632;24.698;2024-03-25T03:45:52;81297.44;;;2.50;73.57
86633;BME280;77353;41.632;24.698;2024-03-25T03:48:53;81291.84;;;2.34;73.05
86633;BME280;77353;41.632;24.698;2024-03-25T03:51:53;81308.22;;;2.33;73.92
86633;BME280;77353;41.632;24.698;2024-03-25T03:54:54;81299.63;;;2.11;74.39
86633;BME280;77353;41.632;24.698;2024-03-25T03:57:56;81309.88;;;2.38;73.60
86633;BME280;77353;41.632;24.698;2024-03-25T04:00:57;81301.59;;;2.32;73.81
86633;BME280;77353;41.632;24.698;2024-03-25T04:03:58;81297.63;;;2.42;73.51
86633;BME280;77353;41.632;24.698;2024-03-25T04:06:58;81308.66;;;2.50;72.66
86633;BME280;77353;41.632;24.698;2024-03-25T04:09:59;81285.75;;;2.11;73.87
86633;BME280;77353;41.632;24.698;2024-03-25T04:13:01;81314.44;;;2.16;73.91
86633;BME280;77353;41.632;24.698;2024-03-25T04:16:02;81304.13;;;2.20;75.37
86633;BME280;77353;41.632;24.698;2024-03-25T04:19:03;81323.22;;;2.09;74.23
86633;BME280;77353;41.632;24.698;2024-03-25T04:22:04;81320.72;;;2.02;75.60
86633;BME280;77353;41.632;24.698;2024-03-25T04:25:05;81322.44;;;1.97;74.59
86633;BME280;77353;41.632;24.698;2024-03-25T04:28:07;81327.97;;;2.01;75.51
86633;BME280;77353;41.632;24.698;2024-03-25T04:31:08;81319.03;;;1.85;76.18
86633;BME280;77353;41.632;24.698;2024-03-25T04:34:09;81309.13;;;1.95;75.98
86633;BME280;77353;41.632;24.698;2024-03-25T04:37:09;81314.09;;;2.01;73.98
86633;BME280;77353;41.632;24.698;2024-03-25T04:40:11;81295.31;;;1.76;73.59
86633;BME280;77353;41.632;24.698;2024-03-25T04:43:13;81320.00;;;2.11;72.22
86633;BME280;77353;41.632;24.698;2024-03-25T04:46:14;81313.22;;;2.08;71.98
86633;BME280;77353;41.632;24.698;2024-03-25T04:49:14;81310.28;;;2.13;71.60
86633;BME280;77353;41.632;24.698;2024-03-25T04:52:15;81312.78;;;2.11;71.42
86633;BME280;77353;41.632;24.698;2024-03-25T04:55:16;81320.06;;;2.01;72.40
86633;BME280;77353;41.632;24.698;2024-03-25T04:58:18;81318.94;;;2.04;71.96
86633;BME280;77353;41.632;24.698;2024-03-25T05:01:19;81315.50;;;1.92;72.15
86633;BME280;77353;41.632;24.698;2024-03-25T05:04:19;81325.13;;;1.78;75.06
86633;BME280;77353;41.632;24.698;2024-03-25T05:07:20;81330.34;;;1.97;75.48
86633;BME280;77353;41.632;24.698;2024-03-25T05:10:21;81343.88;;;2.13;76.17
86633;BME280;77353;41.632;24.698;2024-03-25T05:13:23;81337.91;;;2.12;76.76
86633;BME280;77353;41.632;24.698;2024-03-25T05:16:23;81332.69;;;1.53;80.72
86633;BME280;77353;41.632;24.698;2024-03-25T05:19:24;81338.22;;;1.66;80.33
86633;BME280;77353;41.632;24.698;2024-03-25T05:22:25;81340.25;;;1.78;79.93
86633;BME280;77353;41.632;24.698;2024-03-25T05:25:25;81333.22;;;1.61;80.84
86633;BME280;77353;41.632;24.698;2024-03-25T05:28:27;81344.38;;;1.50;81.96
86633;BME280;77353;41.632;24.698;2024-03-25T05:31:28;81338.78;;;1.55;81.75
86633;BME280;77353;41.632;24.698;2024-03-25T05:34:29;81343.28;;;1.34;82.25
86633;BME280;77353;41.632;24.698;2024-03-25T05:37:30;81343.97;;;1.44;83.10
86633;BME280;77353;41.632;24.698;2024-03-25T05:40:30;81347.06;;;1.71;81.16
86633;BME280;77353;41.632;24.698;2024-03-25T05:43:32;81348.28;;;1.80;81.51
86633;BME280;77353;41.632;24.698;2024-03-25T05:46:33;81343.13;;;1.91;81.77
86633;BME280;77353;41.632;24.698;2024-03-25T05:49:34;81355.63;;;2.73;82.40
86633;BME280;77353;41.632;24.698;2024-03-25T05:52:34;81361.34;;;2.70;78.64
86633;BME280;77353;41.632;24.698;2024-03-25T05:55:35;81361.84;;;2.78;77.63
86633;BME280;77353;41.632;24.698;2024-03-25T05:58:37;81363.44;;;2.10;79.47
86633;BME280;77353;41.632;24.698;2024-03-25T06:01:37;81362.84;;;2.21;79.01
86633;BME280;77353;41.632;24.698;2024-03-25T06:04:38;81377.56;;;2.14;79.16
86633;BME280;77353;41.632;24.698;2024-03-25T06:07:39;81374.31;;;1.95;79.62
86633;BME280;77353;41.632;24.698;2024-03-25T06:10:39;81381.50;;;1.54;81.27
86633;BME280;77353;41.632;24.698;2024-03-25T06:13:41;81381.19;;;1.69;80.45
86633;BME280;77353;41.632;24.698;2024-03-25T06:16:42;81383.06;;;1.88;80.34
86633;BME280;77353;41.632;24.698;2024-03-25T06:19:43;81390.72;;;1.84;79.78
86633;BME280;77353;41.632;24.698;2024-03-25T06:22:43;81391.03;;;1.68;80.58
86633;BME280;77353;41.632;24.698;2024-03-25T06:25:44;81390.09;;;1.45;80.81
86633;BME280;77353;41.632;24.698;2024-03-25T06:28:46;81395.13;;;1.03;80.84
86633;BME280;77353;41.632;24.698;2024-03-25T06:31:47;81390.81;;;1.17;78.94
86633;BME280;77353;41.632;24.698;2024-03-25T06:34:47;81408.00;;;0.79;79.83
86633;BME280;77353;41.632;24.698;2024-03-25T06:37:48;81409.66;;;0.94;78.59
86633;BME280;77353;41.632;24.698;2024-03-25T06:40:49;81411.75;;;0.76;79.16
86633;BME280;77353;41.632;24.698;2024-03-25T06:43:50;81413.47;;;0.45;80.70
86633;BME280;77353;41.632;24.698;2024-03-25T06:46:51;81415.44;;;0.45;80.89
86633;BME280;77353;41.632;24.698;2024-03-25T06:49:52;81420.47;;;0.89;79.13
86633;BME280;77353;41.632;24.698;2024-03-25T06:52:52;81417.69;;;0.77;79.42
86633;BME280;77353;41.632;24.698;2024-03-25T06:55:54;81422.53;;;0.71;79.68
86633;BME280;77353;41.632;24.698;2024-03-25T06:58:56;81426.69;;;0.64;80.17
86633;BME280;77353;41.632;24.698;2024-03-25T07:01:57;81423.34;;;0.73;80.64
86633;BME280;77353;41.632;24.698;2024-03-25T07:04:57;81424.97;;;0.40;81.60
86633;BME280;77353;41.632;24.698;2024-03-25T07:07:58;81422.72;;;0.27;82.32
86633;BME280;77353;41.632;24.698;2024-03-25T07:10:59;81422.22;;;0.57;81.24
86633;BME280;77353;41.632;24.698;2024-03-25T07:14:01;81422.81;;;0.10;82.90
86633;BME280;77353;41.632;24.698;2024-03-25T07:17:01;81417.47;;;0.27;81.50
86633;BME280;77353;41.632;24.698;2024-03-25T07:20:02;81419.81;;;0.33;81.93
86633;BME280;77353;41.632;24.698;2024-03-25T07:23:03;81425.53;;;0.48;81.92
86633;BME280;77353;41.632;24.698;2024-03-25T07:26:04;81430.38;;;0.52;81.61
86633;BME280;77353;41.632;24.698;2024-03-25T07:29:06;81445.19;;;0.47;80.96
86633;BME280;77353;41.632;24.698;2024-03-25T07:32:07;81453.47;;;0.34;80.53
86633;BME280;77353;41.632;24.698;2024-03-25T07:35:07;81455.19;;;0.58;80.19
86633;BME280;77353;41.632;24.698;2024-03-25T07:38:08;81445.94;;;0.21;80.96
86633;BME280;77353;41.632;24.698;2024-03-25T07:41:09;81444.47;;;0.37;80.36
86633;BME280;77353;41.632;24.698;2024-03-25T07:44:11;81456.56;;;0.59;78.59
86633;BME280;77353;41.632;24.698;2024-03-25T07:47:11;81450.63;;;0.68;77.98
86633;BME280;77353;41.632;24.698;2024-03-25T07:50:12;81442.03;;;0.77;77.09
86633;BME280;77353;41.632;24.698;2024-03-25T07:53:13;81433.72;;;0.62;77.16
86633;BME280;77353;41.632;24.698;2024-03-25T07:56:14;81445.25;;;0.85;78.08
86633;BME280;77353;41.632;24.698;2024-03-25T07:59:17;81454.31;;;0.46;78.39
86633;BME280;77353;41.632;24.698;2024-03-25T08:02:17;81452.53;;;0.49;78.42
86633;BME280;77353;41.632;24.698;2024-03-25T08:05:18;81462.34;;;0.48;78.17
86633;BME280;77353;41.632;24.698;2024-03-25T08:08:19;81471.38;;;0.55;77.88
86633;BME280;77353;41.632;24.698;2024-03-25T08:11:19;81478.44;;;0.16;79.34
86633;BME280;77353;41.632;24.698;2024-03-25T08:14:21;81475.41;;;-0.07;80.66
86633;BME280;77353;41.632;24.698;2024-03-25T08:17:22;81481.66;;;-0.29;80.45
86633;BME280;77353;41.632;24.698;2024-03-25T08:20:22;81469.47;;;-0.34;81.38
86633;BME280;77353;41.632;24.698;2024-03-25T08:23:23;81471.66;;;-0.40;81.98
86633;BME280;77353;41.632;24.698;2024-03-25T08:26:24;81487.97;;;-0.59;84.07
86633;BME280;77353;41.632;24.698;2024-03-25T08:29:26;81488.22;;;-0.64;82.24
86633;BME280;77353;41.632;24.698;2024-03-25T08:32:26;81498.19;;;-0.80;81.95
86633;BME280;77353;41.632;24.698;2024-03-25T08:35:27;81498.75;;;-0.99;83.13
86633;BME280;77353;41.632;24.698;2024-03-25T08:38:28;81478.66;;;-0.69;81.54
86633;BME280;77353;41.632;24.698;2024-03-25T08:41:28;81489.09;;;-0.79;82.61
86633;BME280;77353;41.632;24.698;2024-03-25T08:44:30;81481.44;;;-0.67;82.37
86633;BME280;77353;41.632;24.698;2024-03-25T08:47:31;81477.38;;;-1.12;82.55
86633;BME280;77353;41.632;24.698;2024-03-25T08:50:32;81489.88;;;-1.03;83.45
86633;BME280;77353;41.632;24.698;2024-03-25T08:53:32;81487.88;;;-1.29;85.05
86633;BME280;77353;41.632;24.698;2024-03-25T08:56:33;81494.41;;;-1.04;84.13
86633;BME280;77353;41.632;24.698;2024-03-25T08:59:35;81487.72;;;-1.14;84.24
86633;BME280;77353;41.632;24.698;2024-03-25T09:02:36;81490.41;;;-1.22;83.75
86633;BME280;77353;41.632;24.698;2024-03-25T09:05:36;81486.88;;;-1.17;83.65
86633;BME280;77353;41.632;24.698;2024-03-25T09:08:37;81494.25;;;-1.06;83.99
86633;BME280;77353;41.632;24.698;2024-03-25T09:11:38;81488.69;;;-1.44;84.63
86633;BME280;77353;41.632;24.698;2024-03-25T09:14:40;81495.50;;;-1.24;83.44
86633;BME280;77353;41.632;24.698;2024-03-25T09:17:40;81491.81;;;-1.21;83.90
86633;BME280;77353;41.632;24.698;2024-03-25T09:20:41;81489.25;;;-1.28;83.76
86633;BME280;77353;41.632;24.698;2024-03-25T09:23:42;81495.19;;;-1.11;84.72
86633;BME280;77353;41.632;24.698;2024-03-25T09:26:42;81508.41;;;-1.18;83.69
86633;BME280;77353;41.632;24.698;2024-03-25T09:29:44;81511.06;;;-1.26;84.16
86633;BME280;77353;41.632;24.698;2024-03-25T09:32:45;81510.78;;;-1.13;84.52
86633;BME280;77353;41.632;24.698;2024-03-25T09:35:47;81514.94;;;-0.93;82.77
86633;BME280;77353;41.632;24.698;2024-03-25T09:38:47;81521.56;;;-0.92;83.27
86633;BME280;77353;41.632;24.698;2024-03-25T09:41:50;81517.69;;;-0.56;82.35
86633;BME280;77353;41.632;24.698;2024-03-25T09:44:56;81531.16;;;-0.69;82.00
86633;BME280;77353;41.632;24.698;2024-03-25T09:47:57;81529.16;;;-0.78;81.77
86633;BME280;77353;41.632;24.698;2024-03-25T09:50:58;81524.19;;;-0.74;80.19
86633;BME280;77353;41.632;24.698;2024-03-25T09:53:59;81545.72;;;-0.59;82.18
86633;BME280;77353;41.632;24.698;2024-03-25T09:57:00;81553.22;;;-0.55;79.46
86633;BME280;77353;41.632;24.698;2024-03-25T10:00:17;81551.81;;;-0.56;81.18
86633;BME280;77353;41.632;24.698;2024-03-25T10:03:19;81561.63;;;-0.40;78.81
86633;BME280;77353;41.632;24.698;2024-03-25T10:06:20;81561.06;;;-0.21;77.94
86633;BME280;77353;41.632;24.698;2024-03-25T10:09:20;81554.09;;;-0.26;77.91
86633;BME280;77353;41.632;24.698;2024-03-25T10:12:21;81563.13;;;-0.20;80.36
86633;BME280;77353;41.632;24.698;2024-03-25T10:15:23;81558.88;;;-0.15;77.62
86633;BME280;77353;41.632;24.698;2024-03-25T10:18:24;81552.25;;;0.37;78.27
86633;BME280;77353;41.632;24.698;2024-03-25T10:21:24;81565.84;;;0.43;78.61
86633;BME280;77353;41.632;24.698;2024-03-25T10:24:25;81575.72;;;0.52;76.98
86633;BME280;77353;41.632;24.698;2024-03-25T10:27:26;81572.03;;;0.12;76.00
86633;BME280;77353;41.632;24.698;2024-03-25T10:30:28;81580.63;;;0.12;76.34
86633;BME280;77353;41.632;24.698;2024-03-25T10:33:29;81580.50;;;-0.07;77.02
86633;BME280;77353;41.632;24.698;2024-03-25T10:36:30;81587.03;;;-0.25;77.03
86633;BME280;77353;41.632;24.698;2024-03-25T10:39:32;81590.50;;;-0.23;77.56
86633;BME280;77353;41.632;24.698;2024-03-25T10:42:34;81586.06;;;-0.20;77.62
86633;BME280;77353;41.632;24.698;2024-03-25T10:45:39;81574.22;;;0.06;77.46
86633;BME280;77353;41.632;24.698;2024-03-25T10:48:41;81572.78;;;-0.05;75.86
86633;BME280;77353;41.632;24.698;2024-03-25T10:51:44;81577.84;;;0.10;76.13
86633;BME280;77353;41.632;24.698;2024-03-25T10:54:46;81579.91;;;-0.15;76.07
86633;BME280;77353;41.632;24.698;2024-03-25T10:57:48;81592.00;;;-0.03;77.42
86633;BME280;77353;41.632;24.698;2024-03-25T11:00:52;81591.63;;;0.01;75.79
86633;BME280;77353;41.632;24.698;2024-03-25T11:03:53;81585.13;;;0.02;74.04
86633;BME280;77353;41.632;24.698;2024-03-25T11:06:54;81587.75;;;0.02;75.90
86633;BME280;77353;41.632;24.698;2024-03-25T11:10:03;81595.28;;;0.15;74.50
86633;BME280;77353;41.632;24.698;2024-03-25T11:13:10;81588.38;;;0.10;72.83
86633;BME280;77353;41.632;24.698;2024-03-25T11:16:12;81586.34;;;0.18;72.01
86633;BME280;77353;41.632;24.698;2024-03-25T11:19:12;81589.16;;;0.56;69.44
86633;BME280;77353;41.632;24.698;2024-03-25T11:22:13;81596.19;;;0.54;70.67
86633;BME280;77353;41.632;24.698;2024-03-25T11:25:14;81591.13;;;0.12;69.94
86633;BME280;77353;41.632;24.698;2024-03-25T11:28:14;81601.41;;;0.44;70.52
86633;BME280;77353;41.632;24.698;2024-03-25T11:31:18;81599.13;;;0.58;69.30
86633;BME280;77353;41.632;24.698;2024-03-25T11:34:20;81619.00;;;0.78;68.65
86633;BME280;77353;41.632;24.698;2024-03-25T11:37:21;81625.66;;;0.52;68.84
86633;BME280;77353;41.632;24.698;2024-03-25T11:40:21;81633.28;;;0.31;68.66
86633;BME280;77353;41.632;24.698;2024-03-25T11:43:22;81630.91;;;0.26;68.56
86633;BME280;77353;41.632;24.698;2024-03-25T11:46:26;81634.75;;;0.25;67.58
86633;BME280;77353;41.632;24.698;2024-03-25T11:49:26;81632.22;;;0.34;66.29
86633;BME280;77353;41.632;24.698;2024-03-25T11:52:31;81632.97;;;0.71;67.07
86633;BME280;77353;41.632;24.698;2024-03-25T11:55:32;81631.00;;;0.71;66.04
86633;BME280;77353;41.632;24.698;2024-03-25T11:58:33;81634.00;;;0.58;66.88
86633;BME280;77353;41.632;24.698;2024-03-25T12:01:35;81640.94;;;0.63;64.46
86633;BME280;77353;41.632;24.698;2024-03-25T12:04:36;81641.38;;;0.69;64.89
86633;BME280;77353;41.632;24.698;2024-03-25T12:07:37;81643.41;;;0.61;65.19
86633;BME280;77353;41.632;24.698;2024-03-25T12:10:38;81637.97;;;0.50;65.97
86633;BME280;77353;41.632;24.698;2024-03-25T12:13:39;81649.66;;;0.39;65.09
86633;BME280;77353;41.632;24.698;2024-03-25T12:16:41;81648.84;;;0.20;65.80
86633;BME280;77353;41.632;24.698;2024-03-25T12:19:42;81647.84;;;0.59;62.36
86633;BME280;77353;41.632;24.698;2024-03-25T12:22:43;81638.59;;;0.67;62.04
86633;BME280;77353;41.632;24.698;2024-03-25T12:25:48;81645.28;;;0.68;62.14
86633;BME280;77353;41.632;24.698;2024-03-25T12:28:49;81655.22;;;0.97;64.98
86633;BME280;77353;41.632;24.698;2024-03-25T12:31:56;81648.97;;;0.92;63.92
86633;BME280;77353;41.632;24.698;2024-03-25T12:34:57;81656.22;;;1.01;63.85
86633;BME280;77353;41.632;24.698;2024-03-25T12:37:58;81658.84;;;1.37;62.24
86633;BME280;77353;41.632;24.698;2024-03-25T12:41:04;81658.66;;;1.26;59.75
86633;BME280;77353;41.632;24.698;2024-03-25T12:44:05;81671.22;;;0.81;59.66
86633;BME280;77353;41.632;24.698;2024-03-25T12:47:07;81673.59;;;0.87;58.94
86633;BME280;77353;41.632;24.698;2024-03-25T12:50:08;81676.97;;;0.70;59.61
86633;BME280;77353;41.632;24.698;2024-03-25T12:53:17;81670.53;;;0.54;60.87
86633;BME280;77353;41.632;24.698;2024-03-25T12:56:18;81674.66;;;0.74;60.55
86633;BME280;77353;41.632;24.698;2024-03-25T12:59:19;81679.38;;;0.32;60.02
86633;BME280;77353;41.632;24.698;2024-03-25T13:02:21;81674.59;;;0.65;59.48
86633;BME280;77353;41.632;24.698;2024-03-25T13:05:22;81672.47;;;0.80;59.63
86633;BME280;77353;41.632;24.698;2024-03-25T13:08:22;81673.00;;;0.79;60.20
86633;BME280;77353;41.632;24.698;2024-03-25T13:11:23;81682.66;;;0.94;60.46
86633;BME280;77353;41.632;24.698;2024-03-25T13:14:24;81689.78;;;0.83;59.68
86633;BME280;77353;41.632;24.698;2024-03-25T13:17:26;81685.50;;;1.15;59.32
86633;BME280;77353;41.632;24.698;2024-03-25T13:20:27;81681.69;;;1.35;58.58
86633;BME280;77353;41.632;24.698;2024-03-25T13:23:28;81689.38;;;1.14;56.66
86633;BME280;77353;41.632;24.698;2024-03-25T13:26:28;81698.66;;;1.15;56.65
86633;BME280;77353;41.632;24.698;2024-03-25T13:29:29;81705.25;;;1.06;56.09
86633;BME280;77353;41.632;24.698;2024-03-25T13:32:31;81708.63;;;1.16;56.95
86633;BME280;77353;41.632;24.698;2024-03-25T13:35:32;81703.13;;;1.22;56.79
86633;BME280;77353;41.632;24.698;2024-03-25T13:38:32;81716.19;;;1.29;56.11
86633;BME280;77353;41.632;24.698;2024-03-25T13:41:33;81720.22;;;1.04;54.64
86633;BME280;77353;41.632;24.698;2024-03-25T13:44:34;81715.63;;;0.77;55.32
86633;BME280;77353;41.632;24.698;2024-03-25T13:47:36;81714.59;;;0.63;54.79
86633;BME280;77353;41.632;24.698;2024-03-25T13:50:36;81722.97;;;0.52;55.73
86633;BME280;77353;41.632;24.698;2024-03-25T13:53:37;81734.78;;;0.61;55.20
86633;BME280;77353;41.632;24.698;2024-03-25T13:56:38;81731.63;;;0.45;57.05
86633;BME280;77353;41.632;24.698;2024-03-25T13:59:38;81741.88;;;0.68;57.52
86633;BME280;77353;41.632;24.698;2024-03-25T14:02:40;81745.56;;;0.82;57.98
86633;BME280;77353;41.632;24.698;2024-03-25T14:05:41;81748.31;;;0.57;59.89
86633;BME280;77353;41.632;24.698;2024-03-25T14:08:42;81747.88;;;0.34;61.76
86633;BME280;77353;41.632;24.698;2024-03-25T14:11:42;81748.09;;;0.46;62.79
86633;BME280;77353;41.632;24.698;2024-03-25T14:14:43;81756.59;;;0.37;63.96
86633;BME280;77353;41.632;24.698;2024-03-25T14:17:45;81759.88;;;0.45;63.98
86633;BME280;77353;41.632;24.698;2024-03-25T14:20:46;81752.84;;;0.30;64.95
86633;BME280;77353;41.632;24.698;2024-03-25T14:23:47;81757.47;;;0.22;65.64
86633;BME280;77353;41.632;24.698;2024-03-25T14:26:47;81764.50;;;0.20;66.99
86633;BME280;77353;41.632;24.698;2024-03-25T14:29:48;81761.78;;;0.10;67.97
86633;BME280;77353;41.632;24.698;2024-03-25T14:32:50;81772.00;;;0.06;68.11
86633;BME280;77353;41.632;24.698;2024-03-25T14:35:51;81757.03;;;-0.26;69.26
86633;BME280;77353;41.632;24.698;2024-03-25T14:38:51;81771.19;;;-0.21;70.19
86633;BME280;77353;41.632;24.698;2024-03-25T14:41:52;81764.19;;;-0.26;69.75
86633;BME280;77353;41.632;24.698;2024-03-25T14:44:53;81785.88;;;-0.01;69.19
86633;BME280;77353;41.632;24.698;2024-03-25T14:47:55;81794.16;;;-0.05;69.18
86633;BME280;77353;41.632;24.698;2024-03-25T14:50:55;81788.91;;;-0.05;68.97
86633;BME280;77353;41.632;24.698;2024-03-25T14:53:56;81800.47;;;-0.49;69.30
86633;BME280;77353;41.632;24.698;2024-03-25T14:56:57;81809.69;;;-0.73;69.48
86633;BME280;77353;41.632;24.698;2024-03-25T14:59:57;81816.25;;;-0.57;69.59
86633;BME280;77353;41.632;24.698;2024-03-25T15:02:59;81818.53;;;-0.86;69.57
86633;BME280;77353;41.632;24.698;2024-03-25T15:06:00;81814.59;;;-0.69;67.99
86633;BME280;77353;41.632;24.698;2024-03-25T15:09:01;81825.56;;;-0.63;67.20
86633;BME280;77353;41.632;24.698;2024-03-25T15:12:01;81824.81;;;-0.56;67.95
86633;BME280;77353;41.632;24.698;2024-03-25T15:15:02;81833.13;;;-0.67;67.90
86633;BME280;77353;41.632;24.698;2024-03-25T15:18:05;81838.28;;;-0.52;67.33
86633;BME280;77353;41.632;24.698;2024-03-25T15:21:06;81830.28;;;-0.62;67.31
86633;BME280;77353;41.632;24.698;2024-03-25T15:24:07;81838.53;;;-0.65;66.90
86633;BME280;77353;41.632;24.698;2024-03-25T15:27:07;81838.09;;;-0.54;66.24
86633;BME280;77353;41.632;24.698;2024-03-25T15:30:09;81837.25;;;-0.57;66.57
86633;BME280;77353;41.632;24.698;2024-03-25T15:33:11;81838.28;;;-0.52;65.67
86633;BME280;77353;41.632;24.698;2024-03-25T15:36:11;81850.50;;;-0.47;65.92
86633;BME280;77353;41.632;24.698;2024-03-25T15:39:12;81851.41;;;-0.52;64.10
86633;BME280;77353;41.632;24.698;2024-03-25T15:42:13;81854.06;;;-0.60;63.83
86633;BME280;77353;41.632;24.698;2024-03-25T15:45:13;81865.03;;;-0.78;63.66
86633;BME280;77353;41.632;24.698;2024-03-25T15:48:15;81864.69;;;-0.82;62.96
86633;BME280;77353;41.632;24.698;2024-03-25T15:51:16;81864.97;;;-0.71;63.05
86633;BME280;77353;41.632;24.698;2024-03-25T15:54:17;81863.69;;;-0.95;63.90
86633;BME280;77353;41.632;24.698;2024-03-25T15:57:17;81860.94;;;-1.04;62.93